sensor_id;sensor_type;location;lat;lon;timestamp;pressure;altitude;pressure_sealevel;temperature;humidity
45040;BME280;30778;53.574;7.770;2024-01-25T00:00:06;102221.88;;;3.03;58.88
45040;BME280;30778;53.574;7.770;2024-01-25T00:02:34;102229.19;;;3.38;58.55
45040;BME280;30778;53.574;7.770;2024-01-25T00:04:59;102217.88;;;3.28;58.58
45040;BME280;30778;53.574;7.770;2024-01-25T00:07:25;102219.22;;;3.00;59.21
45040;BME280;30778;53.574;7.770;2024-01-25T00:09:53;102217.56;;;3.04;59.43
45040;BME280;30778;53.574;7.770;2024-01-25T00:12:18;102222.09;;;3.22;58.71
45040;BME280;30778;53.574;7.770;2024-01-25T00:14:44;102225.56;;;3.24;59.05
45040;BME280;30778;53.574;7.770;2024-01-25T00:17:12;102220.72;;;3.51;58.09
45040;BME280;30778;53.574;7.770;2024-01-25T00:19:39;102219.91;;;3.52;57.82
45040;BME280;30778;53.574;7.770;2024-01-25T00:22:06;102232.28;;;3.11;59.51
45040;BME280;30778;53.574;7.770;2024-01-25T00:24:32;102220.25;;;3.11;59.36
45040;BME280;30778;53.574;7.770;2024-01-25T00:26:58;102219.59;;;3.28;58.60
45040;BME280;30778;53.574;7.770;2024-01-25T00:29:30;102223.56;;;3.01;59.37
45040;BME280;30778;53.574;7.770;2024-01-25T00:31:56;102233.97;;;3.09;59.49
45040;BME280;30778;53.574;7.770;2024-01-25T00:34:27;102235.75;;;3.11;59.36
45040;BME280;30778;53.574;7.770;2024-01-25T00:36:53;102230.16;;;3.46;58.25
45040;BME280;30778;53.574;7.770;2024-01-25T00:39:19;102229.94;;;3.28;58.68
45040;BME280;30778;53.574;7.770;2024-01-25T00:41:47;102237.56;;;3.18;59.17
45040;BME280;30778;53.574;7.770;2024-01-25T00:44:18;102249.84;;;3.35;58.54
45040;BME280;30778;53.574;7.770;2024-01-25T00:46:46;102241.88;;;3.19;59.22
45040;BME280;30778;53.574;7.770;2024-01-25T00:49:13;102247.78;;;3.09;59.73
45040;BME280;30778;53.574;7.770;2024-01-25T00:51:44;102235.19;;;3.35;58.85
45040;BME280;30778;53.574;7.770;2024-01-25T00:54:14;102229.63;;;3.03;59.87
45040;BME280;30778;53.574;7.770;2024-01-25T00:56:42;102230.66;;;3.16;59.25
45040;BME280;30778;53.574;7.770;2024-01-25T00:59:11;102232.50;;;3.28;58.92
45040;BME280;30778;53.574;7.770;2024-01-25T01:01:39;102234.31;;;3.33;59.04
45040;BME280;30778;53.574;7.770;2024-01-25T01:04:09;102232.06;;;2.94;60.05
45040;BME280;30778;53.574;7.770;2024-01-25T01:06:37;102235.69;;;3.08;59.66
45040;BME280;30778;53.574;7.770;2024-01-25T01:09:08;102232.22;;;3.06;59.92
45040;BME280;30778;53.574;7.770;2024-01-25T01:11:36;102235.91;;;3.27;59.54
45040;BME280;30778;53.574;7.770;2024-01-25T01:14:01;102238.50;;;3.25;59.20
45040;BME280;30778;53.574;7.770;2024-01-25T01:16:27;102247.31;;;3.39;58.67
45040;BME280;30778;53.574;7.770;2024-01-25T01:18:58;102242.53;;;3.03;59.84
45040;BME280;30778;53.574;7.770;2024-01-25T01:21:30;102246.00;;;3.05;59.53
45040;BME280;30778;53.574;7.770;2024-01-25T01:24:01;102259.88;;;3.13;59.56
45040;BME280;30778;53.574;7.770;2024-01-25T01:26:32;102263.22;;;3.06;60.13
45040;BME280;30778;53.574;7.770;2024-01-25T01:29:01;102267.09;;;2.75;60.90
45040;BME280;30778;53.574;7.770;2024-01-25T01:31:26;102282.63;;;3.36;58.98
45040;BME280;30778;53.574;7.770;2024-01-25T01:33:52;102284.63;;;2.97;60.28
45040;BME280;30778;53.574;7.770;2024-01-25T01:36:17;102281.22;;;2.98;59.99
45040;BME280;30778;53.574;7.770;2024-01-25T01:38:45;102279.75;;;3.19;59.80
45040;BME280;30778;53.574;7.770;2024-01-25T01:41:10;102280.03;;;3.36;59.28
45040;BME280;30778;53.574;7.770;2024-01-25T01:43:39;102295.09;;;3.07;60.24
45040;BME280;30778;53.574;7.770;2024-01-25T01:46:14;102293.13;;;2.90;60.69
45040;BME280;30778;53.574;7.770;2024-01-25T01:48:47;102286.34;;;2.97;60.40
45040;BME280;30778;53.574;7.770;2024-01-25T01:51:13;102300.28;;;3.08;60.05
45040;BME280;30778;53.574;7.770;2024-01-25T01:53:43;102307.63;;;2.81;60.84
45040;BME280;30778;53.574;7.770;2024-01-25T01:56:09;102305.28;;;2.97;60.30
45040;BME280;30778;53.574;7.770;2024-01-25T01:58:35;102313.03;;;2.97;60.15
45040;BME280;30778;53.574;7.770;2024-01-25T02:01:04;102310.50;;;2.99;60.10
45040;BME280;30778;53.574;7.770;2024-01-25T02:03:29;102313.97;;;3.01;60.69
45040;BME280;30778;53.574;7.770;2024-01-25T02:05:55;102317.50;;;2.53;61.93
45040;BME280;30778;53.574;7.770;2024-01-25T02:08:23;102328.88;;;2.63;61.66
45040;BME280;30778;53.574;7.770;2024-01-25T02:10:50;102315.13;;;3.23;59.76
45040;BME280;30778;53.574;7.770;2024-01-25T02:13:16;102334.69;;;3.06;60.20
45040;BME280;30778;53.574;7.770;2024-01-25T02:15:41;102323.56;;;3.10;60.08
45040;BME280;30778;53.574;7.770;2024-01-25T02:18:10;102329.13;;;3.36;59.06
45040;BME280;30778;53.574;7.770;2024-01-25T02:20:35;102334.28;;;2.80;61.20
45040;BME280;30778;53.574;7.770;2024-01-25T02:23:03;102331.53;;;3.27;59.47
45040;BME280;30778;53.574;7.770;2024-01-25T02:25:29;102334.78;;;2.57;61.66
45040;BME280;30778;53.574;7.770;2024-01-25T02:27:54;102340.59;;;2.97;60.83
45040;BME280;30778;53.574;7.770;2024-01-25T02:30:20;102330.94;;;2.85;61.07
45040;BME280;30778;53.574;7.770;2024-01-25T02:32:48;102340.59;;;2.97;60.75
45040;BME280;30778;53.574;7.770;2024-01-25T02:35:13;102336.28;;;2.97;60.58
45040;BME280;30778;53.574;7.770;2024-01-25T02:37:39;102345.41;;;2.74;61.67
45040;BME280;30778;53.574;7.770;2024-01-25T02:40:05;102339.22;;;3.21;59.95
45040;BME280;30778;53.574;7.770;2024-01-25T02:42:31;102332.03;;;3.01;60.67
45040;BME280;30778;53.574;7.770;2024-01-25T02:44:57;102335.25;;;2.85;61.40
45040;BME280;30778;53.574;7.770;2024-01-25T02:47:25;102332.75;;;2.91;60.92
45040;BME280;30778;53.574;7.770;2024-01-25T02:49:58;102345.81;;;3.02;60.76
45040;BME280;30778;53.574;7.770;2024-01-25T02:52:24;102336.97;;;2.86;61.18
45040;BME280;30778;53.574;7.770;2024-01-25T02:54:50;102338.88;;;2.96;60.90
45040;BME280;30778;53.574;7.770;2024-01-25T02:57:18;102349.38;;;3.08;60.32
45040;BME280;30778;53.574;7.770;2024-01-25T02:59:47;102349.28;;;3.02;60.56
45040;BME280;30778;53.574;7.770;2024-01-25T03:02:12;102359.13;;;2.71;61.53
45040;BME280;30778;53.574;7.770;2024-01-25T03:04:38;102363.19;;;3.10;60.42
45040;BME280;30778;53.574;7.770;2024-01-25T03:07:03;102361.38;;;3.05;60.67
45040;BME280;30778;53.574;7.770;2024-01-25T03:09:29;102362.44;;;3.19;59.96
45040;BME280;30778;53.574;7.770;2024-01-25T03:11:59;102365.09;;;3.24;59.81
45040;BME280;30778;53.574;7.770;2024-01-25T03:14:24;102353.56;;;3.02;60.82
45040;BME280;30778;53.574;7.770;2024-01-25T03:16:50;102365.72;;;3.07;60.46
45040;BME280;30778;53.574;7.770;2024-01-25T03:19:18;102368.78;;;2.83;61.40
45040;BME280;30778;53.574;7.770;2024-01-25T03:21:51;102371.22;;;2.75;61.46
45040;BME280;30778;53.574;7.770;2024-01-25T03:24:19;102380.75;;;2.80;61.64
45040;BME280;30778;53.574;7.770;2024-01-25T03:26:44;102385.50;;;3.05;60.18
45040;BME280;30778;53.574;7.770;2024-01-25T03:29:12;102380.19;;;2.96;60.89
45040;BME280;30778;53.574;7.770;2024-01-25T03:31:38;102375.16;;;3.05;60.69
45040;BME280;30778;53.574;7.770;2024-01-25T03:34:03;102382.38;;;2.71;61.26
45040;BME280;30778;53.574;7.770;2024-01-25T03:36:34;102386.72;;;2.75;61.54
45040;BME280;30778;53.574;7.770;2024-01-25T03:39:01;102387.97;;;2.99;60.80
45040;BME280;30778;53.574;7.770;2024-01-25T03:41:26;102382.41;;;2.74;62.04
45040;BME280;30778;53.574;7.770;2024-01-25T03:43:54;102384.69;;;2.56;62.49
45040;BME280;30778;53.574;7.770;2024-01-25T03:46:20;102402.97;;;2.68;61.54
45040;BME280;30778;53.574;7.770;2024-01-25T03:48:47;102399.97;;;2.94;60.91
45040;BME280;30778;53.574;7.770;2024-01-25T03:51:13;102408.03;;;3.15;59.90
45040;BME280;30778;53.574;7.770;2024-01-25T03:53:38;102408.53;;;2.91;60.91
45040;BME280;30778;53.574;7.770;2024-01-25T03:56:10;102419.06;;;3.04;60.64
45040;BME280;30778;53.574;7.770;2024-01-25T03:58:36;102419.91;;;3.04;60.38
45040;BME280;30778;53.574;7.770;2024-01-25T04:01:04;102421.56;;;2.99;60.84
45040;BME280;30778;53.574;7.770;2024-01-25T04:03:31;102423.06;;;2.85;60.93
45040;BME280;30778;53.574;7.770;2024-01-25T04:05:56;102423.31;;;3.02;60.20
45040;BME280;30778;53.574;7.770;2024-01-25T04:08:24;102433.31;;;2.82;60.81
45040;BME280;30778;53.574;7.770;2024-01-25T04:10:52;102432.56;;;2.87;60.91
45040;BME280;30778;53.574;7.770;2024-01-25T04:13:18;102431.59;;;2.82;61.27
45040;BME280;30778;53.574;7.770;2024-01-25T04:15:47;102434.34;;;2.93;60.66
45040;BME280;30778;53.574;7.770;2024-01-25T04:18:13;102427.94;;;2.69;61.45
45040;BME280;30778;53.574;7.770;2024-01-25T04:20:40;102430.53;;;2.69;61.03
45040;BME280;30778;53.574;7.770;2024-01-25T04:23:08;102435.06;;;2.83;60.76
45040;BME280;30778;53.574;7.770;2024-01-25T04:25:36;102428.31;;;2.44;62.29
45040;BME280;30778;53.574;7.770;2024-01-25T04:28:01;102428.94;;;2.77;61.32
45040;BME280;30778;53.574;7.770;2024-01-25T04:30:27;102429.78;;;2.76;61.20
45040;BME280;30778;53.574;7.770;2024-01-25T04:32:53;102425.53;;;2.79;60.99
45040;BME280;30778;53.574;7.770;2024-01-25T04:35:19;102418.31;;;2.62;61.54
45040;BME280;30778;53.574;7.770;2024-01-25T04:37:45;102414.47;;;2.39;62.27
45040;BME280;30778;53.574;7.770;2024-01-25T04:40:10;102430.66;;;2.77;61.01
45040;BME280;30778;53.574;7.770;2024-01-25T04:42:38;102423.44;;;2.59;62.27
45040;BME280;30778;53.574;7.770;2024-01-25T04:45:04;102426.97;;;2.64;61.55
45040;BME280;30778;53.574;7.770;2024-01-25T04:47:29;102423.91;;;2.85;60.45
45040;BME280;30778;53.574;7.770;2024-01-25T04:49:57;102426.72;;;2.50;62.01
45040;BME280;30778;53.574;7.770;2024-01-25T04:52:23;102443.72;;;2.85;60.35
45040;BME280;30778;53.574;7.770;2024-01-25T04:54:48;102438.16;;;2.63;61.22
45040;BME280;30778;53.574;7.770;2024-01-25T04:57:13;102446.03;;;2.69;61.53
45040;BME280;30778;53.574;7.770;2024-01-25T04:59:43;102446.50;;;2.50;62.00
45040;BME280;30778;53.574;7.770;2024-01-25T05:02:09;102438.03;;;2.57;61.71
45040;BME280;30778;53.574;7.770;2024-01-25T05:04:38;102450.31;;;2.70;61.04
45040;BME280;30778;53.574;7.770;2024-01-25T05:07:03;102452.00;;;2.68;61.18
45040;BME280;30778;53.574;7.770;2024-01-25T05:09:31;102448.75;;;2.79;61.31
45040;BME280;30778;53.574;7.770;2024-01-25T05:11:59;102453.59;;;2.60;61.56
45040;BME280;30778;53.574;7.770;2024-01-25T05:14:27;102458.19;;;2.76;61.21
45040;BME280;30778;53.574;7.770;2024-01-25T05:16:52;102462.00;;;2.50;61.94
45040;BME280;30778;53.574;7.770;2024-01-25T05:19:18;102456.97;;;2.57;61.42
45040;BME280;30778;53.574;7.770;2024-01-25T05:21:46;102461.47;;;2.68;61.02
45040;BME280;30778;53.574;7.770;2024-01-25T05:24:14;102463.53;;;2.40;61.96
45040;BME280;30778;53.574;7.770;2024-01-25T05:26:42;102465.41;;;2.06;63.13
45040;BME280;30778;53.574;7.770;2024-01-25T05:29:10;102469.41;;;2.33;62.16
45040;BME280;30778;53.574;7.770;2024-01-25T05:31:35;102466.22;;;2.46;61.36
45040;BME280;30778;53.574;7.770;2024-01-25T05:34:03;102466.31;;;2.51;61.42
45040;BME280;30778;53.574;7.770;2024-01-25T05:36:28;102473.47;;;2.20;62.28
45040;BME280;30778;53.574;7.770;2024-01-25T05:38:54;102474.69;;;1.97;63.82
45040;BME280;30778;53.574;7.770;2024-01-25T05:41:21;102466.16;;;2.01;63.05
45040;BME280;30778;53.574;7.770;2024-01-25T05:43:47;102473.84;;;1.98;63.54
45040;BME280;30778;53.574;7.770;2024-01-25T05:46:12;102481.25;;;2.23;62.26
45040;BME280;30778;53.574;7.770;2024-01-25T05:48:38;102483.50;;;2.50;61.26
45040;BME280;30778;53.574;7.770;2024-01-25T05:51:06;102480.97;;;2.09;63.13
45040;BME280;30778;53.574;7.770;2024-01-25T05:53:33;102488.34;;;1.92;63.59
45040;BME280;30778;53.574;7.770;2024-01-25T05:55:59;102488.53;;;2.02;63.44
45040;BME280;30778;53.574;7.770;2024-01-25T05:58:26;102485.47;;;2.18;62.36
45040;BME280;30778;53.574;7.770;2024-01-25T06:00:52;102494.09;;;2.20;62.30
45040;BME280;30778;53.574;7.770;2024-01-25T06:03:19;102493.56;;;1.96;63.07
45040;BME280;30778;53.574;7.770;2024-01-25T06:05:45;102494.81;;;2.14;62.90
45040;BME280;30778;53.574;7.770;2024-01-25T06:08:10;102498.19;;;2.10;62.88
45040;BME280;30778;53.574;7.770;2024-01-25T06:10:38;102493.78;;;2.05;63.05
45040;BME280;30778;53.574;7.770;2024-01-25T06:13:05;102497.59;;;1.83;63.61
45040;BME280;30778;53.574;7.770;2024-01-25T06:15:30;102504.47;;;2.23;62.61
45040;BME280;30778;53.574;7.770;2024-01-25T06:17:57;102504.09;;;2.05;62.51
45040;BME280;30778;53.574;7.770;2024-01-25T06:20:24;102510.88;;;2.01;63.61
45040;BME280;30778;53.574;7.770;2024-01-25T06:22:54;102502.16;;;2.35;61.48
45040;BME280;30778;53.574;7.770;2024-01-25T06:25:22;102503.91;;;1.97;62.82
45040;BME280;30778;53.574;7.770;2024-01-25T06:27:47;102509.38;;;2.11;62.87
45040;BME280;30778;53.574;7.770;2024-01-25T06:30:14;102506.34;;;2.30;61.94
45040;BME280;30778;53.574;7.770;2024-01-25T06:32:39;102518.44;;;2.33;61.50
45040;BME280;30778;53.574;7.770;2024-01-25T06:35:05;102514.56;;;2.11;62.90
45040;BME280;30778;53.574;7.770;2024-01-25T06:37:31;102513.41;;;1.98;63.58
45040;BME280;30778;53.574;7.770;2024-01-25T06:39:56;102513.59;;;2.07;62.87
45040;BME280;30778;53.574;7.770;2024-01-25T06:42:26;102514.56;;;2.11;62.85
45040;BME280;30778;53.574;7.770;2024-01-25T06:44:54;102513.50;;;2.03;62.32
45040;BME280;30778;53.574;7.770;2024-01-25T06:47:20;102509.72;;;1.88;63.66
45040;BME280;30778;53.574;7.770;2024-01-25T06:49:46;102511.25;;;2.18;62.41
45040;BME280;30778;53.574;7.770;2024-01-25T06:52:16;102521.06;;;1.95;63.41
45040;BME280;30778;53.574;7.770;2024-01-25T06:54:42;102518.75;;;2.07;63.08
45040;BME280;30778;53.574;7.770;2024-01-25T06:57:07;102522.97;;;2.02;63.53
45040;BME280;30778;53.574;7.770;2024-01-25T06:59:33;102526.66;;;2.15;62.39
45040;BME280;30778;53.574;7.770;2024-01-25T07:01:59;102523.88;;;1.68;63.80
45040;BME280;30778;53.574;7.770;2024-01-25T07:04:26;102530.50;;;1.94;64.01
45040;BME280;30778;53.574;7.770;2024-01-25T07:06:52;102523.97;;;2.10;63.36
45040;BME280;30778;53.574;7.770;2024-01-25T07:09:20;102537.56;;;2.03;63.06
45040;BME280;30778;53.574;7.770;2024-01-25T07:11:46;102541.09;;;2.07;62.74
45040;BME280;30778;53.574;7.770;2024-01-25T07:14:14;102549.09;;;1.80;63.77
45040;BME280;30778;53.574;7.770;2024-01-25T07:16:39;102543.22;;;2.25;62.33
45040;BME280;30778;53.574;7.770;2024-01-25T07:19:05;102553.81;;;1.98;63.34
45040;BME280;30778;53.574;7.770;2024-01-25T07:21:30;102543.34;;;1.91;63.25
45040;BME280;30778;53.574;7.770;2024-01-25T07:24:00;102549.28;;;2.27;62.01
45040;BME280;30778;53.574;7.770;2024-01-25T07:26:26;102546.22;;;1.67;64.02
45040;BME280;30778;53.574;7.770;2024-01-25T07:28:51;102542.75;;;1.67;64.70
45040;BME280;30778;53.574;7.770;2024-01-25T07:31:26;102561.34;;;1.90;64.13
45040;BME280;30778;53.574;7.770;2024-01-25T07:33:52;102560.28;;;1.80;64.20
45040;BME280;30778;53.574;7.770;2024-01-25T07:36:18;102557.69;;;1.82;64.47
45040;BME280;30778;53.574;7.770;2024-01-25T07:38:44;102558.81;;;1.91;63.67
45040;BME280;30778;53.574;7.770;2024-01-25T07:41:13;102564.84;;;1.57;64.44
45040;BME280;30778;53.574;7.770;2024-01-25T07:43:41;102571.44;;;1.44;65.67
45040;BME280;30778;53.574;7.770;2024-01-25T07:46:17;102548.41;;;1.88;64.00
45040;BME280;30778;53.574;7.770;2024-01-25T07:48:43;102562.75;;;2.15;63.35
45040;BME280;30778;53.574;7.770;2024-01-25T07:51:12;102558.41;;;1.75;64.31
45040;BME280;30778;53.574;7.770;2024-01-25T07:53:39;102569.34;;;2.01;63.88
45040;BME280;30778;53.574;7.770;2024-01-25T07:56:07;102573.91;;;1.76;64.59
45040;BME280;30778;53.574;7.770;2024-01-25T07:58:36;102583.34;;;2.12;63.72
45040;BME280;30778;53.574;7.770;2024-01-25T08:01:05;102593.63;;;2.10;63.64
45040;BME280;30778;53.574;7.770;2024-01-25T08:03:34;102590.31;;;2.16;63.45
45040;BME280;30778;53.574;7.770;2024-01-25T08:06:02;102591.00;;;2.47;62.23
45040;BME280;30778;53.574;7.770;2024-01-25T08:08:28;102596.16;;;2.89;61.28
45040;BME280;30778;53.574;7.770;2024-01-25T08:10:54;102584.03;;;2.85;61.47
45040;BME280;30778;53.574;7.770;2024-01-25T08:13:22;102583.56;;;3.05;60.83
45040;BME280;30778;53.574;7.770;2024-01-25T08:15:48;102580.94;;;3.03;60.71
45040;BME280;30778;53.574;7.770;2024-01-25T08:18:14;102580.03;;;3.01;60.36
45040;BME280;30778;53.574;7.770;2024-01-25T08:20:39;102580.84;;;3.00;60.51
45040;BME280;30778;53.574;7.770;2024-01-25T08:23:05;102583.69;;;3.12;60.39
45040;BME280;30778;53.574;7.770;2024-01-25T08:25:34;102597.38;;;2.64;61.24
45040;BME280;30778;53.574;7.770;2024-01-25T08:27:59;102591.91;;;2.93;61.16
45040;BME280;30778;53.574;7.770;2024-01-25T08:30:25;102590.78;;;3.23;60.26
45040;BME280;30778;53.574;7.770;2024-01-25T08:32:51;102592.22;;;3.54;59.39
45040;BME280;30778;53.574;7.770;2024-01-25T08:35:17;102595.94;;;3.71;59.72
45040;BME280;30778;53.574;7.770;2024-01-25T08:37:43;102599.41;;;4.31;57.66
45040;BME280;30778;53.574;7.770;2024-01-25T08:40:11;102596.06;;;4.38;56.83
45040;BME280;30778;53.574;7.770;2024-01-25T08:42:36;102596.03;;;4.35;56.65
45040;BME280;30778;53.574;7.770;2024-01-25T08:45:02;102611.88;;;4.60;57.13
45040;BME280;30778;53.574;7.770;2024-01-25T08:47:30;102610.59;;;4.29;57.64
45040;BME280;30778;53.574;7.770;2024-01-25T08:49:57;102608.13;;;3.80;58.12
45040;BME280;30778;53.574;7.770;2024-01-25T08:52:22;102612.66;;;3.93;58.25
45040;BME280;30778;53.574;7.770;2024-01-25T08:54:48;102616.47;;;4.18;57.25
45040;BME280;30778;53.574;7.770;2024-01-25T08:57:16;102610.72;;;3.80;58.23
45040;BME280;30778;53.574;7.770;2024-01-25T08:59:42;102614.78;;;4.19;58.31
45040;BME280;30778;53.574;7.770;2024-01-25T09:02:10;102604.47;;;4.88;55.93
45040;BME280;30778;53.574;7.770;2024-01-25T09:04:35;102607.50;;;5.28;55.60
45040;BME280;30778;53.574;7.770;2024-01-25T09:07:01;102618.78;;;5.34;54.69
45040;BME280;30778;53.574;7.770;2024-01-25T09:09:27;102618.47;;;5.95;53.92
45040;BME280;30778;53.574;7.770;2024-01-25T09:11:53;102621.16;;;6.09;53.59
45040;BME280;30778;53.574;7.770;2024-01-25T09:14:19;102613.41;;;6.14;52.15
45040;BME280;30778;53.574;7.770;2024-01-25T09:16:50;102611.56;;;6.00;52.62
45040;BME280;30778;53.574;7.770;2024-01-25T09:19:18;102609.94;;;6.15;52.18
45040;BME280;30778;53.574;7.770;2024-01-25T09:21:46;102609.63;;;5.72;52.83
45040;BME280;30778;53.574;7.770;2024-01-25T09:24:20;102609.69;;;5.81;53.37
45040;BME280;30778;53.574;7.770;2024-01-25T09:26:48;102610.50;;;5.72;53.37
45040;BME280;30778;53.574;7.770;2024-01-25T09:29:14;102608.09;;;5.95;52.51
45040;BME280;30778;53.574;7.770;2024-01-25T09:31:42;102615.72;;;5.75;52.81
45040;BME280;30778;53.574;7.770;2024-01-25T09:34:08;102613.03;;;5.61;53.65
45040;BME280;30778;53.574;7.770;2024-01-25T09:36:33;102621.44;;;5.39;54.54
45040;BME280;30778;53.574;7.770;2024-01-25T09:38:59;102624.88;;;5.35;54.77
45040;BME280;30778;53.574;7.770;2024-01-25T09:41:24;102626.56;;;5.33;54.51
45040;BME280;30778;53.574;7.770;2024-01-25T09:43:53;102628.38;;;5.40;54.84
45040;BME280;30778;53.574;7.770;2024-01-25T09:46:20;102635.38;;;5.49;54.43
45040;BME280;30778;53.574;7.770;2024-01-25T09:48:46;102634.41;;;5.39;55.20
45040;BME280;30778;53.574;7.770;2024-01-25T09:51:13;102652.81;;;4.87;56.47
45040;BME280;30778;53.574;7.770;2024-01-25T09:53:39;102658.63;;;5.39;55.49
45040;BME280;30778;53.574;7.770;2024-01-25T09:56:12;102647.34;;;5.36;55.76
45040;BME280;30778;53.574;7.770;2024-01-25T09:58:42;102657.09;;;5.60;53.91
45040;BME280;30778;53.574;7.770;2024-01-25T10:01:10;102654.00;;;5.11;56.12
45040;BME280;30778;53.574;7.770;2024-01-25T10:03:41;102657.25;;;4.96;56.21
45040;BME280;30778;53.574;7.770;2024-01-25T10:06:07;102659.47;;;4.70;56.67
45040;BME280;30778;53.574;7.770;2024-01-25T10:08:34;102656.81;;;5.31;55.71
45040;BME280;30778;53.574;7.770;2024-01-25T10:11:05;102662.06;;;5.38;55.21
45040;BME280;30778;53.574;7.770;2024-01-25T10:13:32;102668.31;;;4.84;56.71
45040;BME280;30778;53.574;7.770;2024-01-25T10:15:58;102673.44;;;4.81;56.21
45040;BME280;30778;53.574;7.770;2024-01-25T10:18:25;102676.06;;;4.82;56.98
45040;BME280;30778;53.574;7.770;2024-01-25T10:20:56;102682.75;;;5.34;55.37
45040;BME280;30778;53.574;7.770;2024-01-25T10:23:21;102688.22;;;5.60;55.16
45040;BME280;30778;53.574;7.770;2024-01-25T10:25:48;102680.22;;;5.40;55.03
45040;BME280;30778;53.574;7.770;2024-01-25T10:28:15;102682.78;;;5.37;55.43
45040;BME280;30778;53.574;7.770;2024-01-25T10:30:43;102671.69;;;5.50;54.51
45040;BME280;30778;53.574;7.770;2024-01-25T10:33:09;102668.16;;;5.42;54.70
45040;BME280;30778;53.574;7.770;2024-01-25T10:35:36;102664.81;;;4.80;56.23
45040;BME280;30778;53.574;7.770;2024-01-25T10:38:03;102665.88;;;4.93;56.21
45040;BME280;30778;53.574;7.770;2024-01-25T10:40:29;102663.91;;;4.78;57.49
45040;BME280;30778;53.574;7.770;2024-01-25T10:42:54;102654.81;;;5.07;56.52
45040;BME280;30778;53.574;7.770;2024-01-25T10:45:20;102658.31;;;5.10;55.39
45040;BME280;30778;53.574;7.770;2024-01-25T10:47:48;102665.91;;;5.80;55.21
45040;BME280;30778;53.574;7.770;2024-01-25T10:50:14;102656.81;;;6.32;54.12
45040;BME280;30778;53.574;7.770;2024-01-25T10:52:41;102661.19;;;6.39;53.20
45040;BME280;30778;53.574;7.770;2024-01-25T10:55:07;102665.81;;;7.00;52.27
45040;BME280;30778;53.574;7.770;2024-01-25T10:57:45;102658.97;;;7.32;50.74
45040;BME280;30778;53.574;7.770;2024-01-25T11:00:14;102657.16;;;7.01;50.97
45040;BME280;30778;53.574;7.770;2024-01-25T11:02:41;102662.38;;;7.13;51.52
45040;BME280;30778;53.574;7.770;2024-01-25T11:05:15;102660.53;;;6.81;50.81
45040;BME280;30778;53.574;7.770;2024-01-25T11:07:50;102654.09;;;6.18;52.70
45040;BME280;30778;53.574;7.770;2024-01-25T11:10:19;102652.91;;;5.73;54.18
45040;BME280;30778;53.574;7.770;2024-01-25T11:15:33;102656.56;;;6.01;53.18
45040;BME280;30778;53.574;7.770;2024-01-25T11:18:00;102648.94;;;6.22;53.21
45040;BME280;30778;53.574;7.770;2024-01-25T11:20:28;102647.50;;;6.69;51.87
45040;BME280;30778;53.574;7.770;2024-01-25T11:23:15;102659.06;;;5.88;53.69
45040;BME280;30778;53.574;7.770;2024-01-25T11:25:47;102662.31;;;5.61;53.97
45040;BME280;30778;53.574;7.770;2024-01-25T11:28:14;102661.53;;;5.75;53.77
45040;BME280;30778;53.574;7.770;2024-01-25T11:30:41;102667.88;;;5.17;54.70
45040;BME280;30778;53.574;7.770;2024-01-25T11:33:07;102669.41;;;5.00;55.70
45040;BME280;30778;53.574;7.770;2024-01-25T11:35:34;102662.81;;;5.30;54.88
45040;BME280;30778;53.574;7.770;2024-01-25T11:37:59;102656.56;;;5.12;55.34
45040;BME280;30778;53.574;7.770;2024-01-25T11:40:28;102645.19;;;4.98;55.33
45040;BME280;30778;53.574;7.770;2024-01-25T11:42:54;102644.72;;;5.34;55.07
45040;BME280;30778;53.574;7.770;2024-01-25T11:45:20;102648.28;;;6.51;53.72
45040;BME280;30778;53.574;7.770;2024-01-25T11:47:48;102628.47;;;6.72;50.71
45040;BME280;30778;53.574;7.770;2024-01-25T11:50:14;102642.22;;;6.49;51.42
45040;BME280;30778;53.574;7.770;2024-01-25T11:52:40;102641.25;;;6.36;51.82
45040;BME280;30778;53.574;7.770;2024-01-25T11:55:09;102641.31;;;6.47;51.66
45040;BME280;30778;53.574;7.770;2024-01-25T11:57:42;102642.13;;;6.34;51.50
45040;BME280;30778;53.574;7.770;2024-01-25T12:00:12;102643.34;;;7.14;51.72
45040;BME280;30778;53.574;7.770;2024-01-25T12:02:39;102640.81;;;7.45;50.30
45040;BME280;30778;53.574;7.770;2024-01-25T12:05:05;102632.16;;;7.64;49.54
45040;BME280;30778;53.574;7.770;2024-01-25T12:07:32;102644.25;;;8.33;48.60
45040;BME280;30778;53.574;7.770;2024-01-25T12:10:06;102648.63;;;8.15;47.36
45040;BME280;30778;53.574;7.770;2024-01-25T12:12:35;102646.88;;;8.22;48.31
45040;BME280;30778;53.574;7.770;2024-01-25T12:15:03;102634.75;;;8.00;46.83
45040;BME280;30778;53.574;7.770;2024-01-25T12:17:32;102642.44;;;7.06;49.17
45040;BME280;30778;53.574;7.770;2024-01-25T12:19:59;102638.44;;;6.07;51.53
45040;BME280;30778;53.574;7.770;2024-01-25T12:22:28;102636.94;;;6.38;51.05
45040;BME280;30778;53.574;7.770;2024-01-25T12:24:57;102631.09;;;6.85;51.05
45040;BME280;30778;53.574;7.770;2024-01-25T12:27:24;102624.91;;;6.57;50.49
45040;BME280;30778;53.574;7.770;2024-01-25T12:29:50;102635.88;;;6.12;52.25
45040;BME280;30778;53.574;7.770;2024-01-25T12:32:18;102634.66;;;5.68;53.27
45040;BME280;30778;53.574;7.770;2024-01-25T12:35:02;102633.13;;;5.90;53.09
45040;BME280;30778;53.574;7.770;2024-01-25T12:37:27;102636.72;;;6.07;52.40
45040;BME280;30778;53.574;7.770;2024-01-25T12:39:59;102631.50;;;6.04;52.89
45040;BME280;30778;53.574;7.770;2024-01-25T12:42:30;102641.81;;;5.97;53.10
45040;BME280;30778;53.574;7.770;2024-01-25T12:44:56;102630.13;;;6.59;52.03
45040;BME280;30778;53.574;7.770;2024-01-25T12:47:21;102631.09;;;6.82;51.70
45040;BME280;30778;53.574;7.770;2024-01-25T12:49:47;102623.28;;;6.78;50.21
45040;BME280;30778;53.574;7.770;2024-01-25T12:52:18;102624.66;;;6.19;51.64
45040;BME280;30778;53.574;7.770;2024-01-25T12:54:43;102628.19;;;6.25;51.21
45040;BME280;30778;53.574;7.770;2024-01-25T12:57:09;102627.56;;;5.47;52.41
45040;BME280;30778;53.574;7.770;2024-01-25T12:59:35;102626.22;;;5.91;52.26
45040;BME280;30778;53.574;7.770;2024-01-25T13:02:06;102620.94;;;5.80;52.25